sensor_id;sensor_type;location;lat;lon;timestamp;temperature;humidity
5276;DHT22;2661;50.786;12.728;2023-03-31T00:01:36;8.50;99.90
5276;DHT22;2661;50.786;12.728;2023-03-31T00:04:08;8.50;99.90
5276;DHT22;2661;50.786;12.728;2023-03-31T00:06:36;8.50;90.90
5276;DHT22;2661;50.786;12.728;2023-03-31T00:09:04;8.50;84.20
5276;DHT22;2661;50.786;12.728;2023-03-31T00:11:30;8.50;62.10
5276;DHT22;2661;50.786;12.728;2023-03-31T00:13:57;8.50;47.00
5276;DHT22;2661;50.786;12.728;2023-03-31T00:16:23;8.50;33.20
5276;DHT22;2661;50.786;12.728;2023-03-31T00:18:50;8.60;1.00
5276;DHT22;2661;50.786;12.728;2023-03-31T00:21:18;8.60;1.00
5276;DHT22;2661;50.786;12.728;2023-03-31T00:23:55;8.70;1.00
5276;DHT22;2661;50.786;12.728;2023-03-31T00:26:23;8.70;1.00
5276;DHT22;2661;50.786;12.728;2023-03-31T00:28:50;8.60;1.00
5276;DHT22;2661;50.786;12.728;2023-03-31T00:31:17;8.60;1.00
5276;DHT22;2661;50.786;12.728;2023-03-31T00:33:43;8.50;1.00
5276;DHT22;2661;50.786;12.728;2023-03-31T00:36:10;8.50;1.00
5276;DHT22;2661;50.786;12.728;2023-03-31T00:38:37;8.50;1.00
5276;DHT22;2661;50.786;12.728;2023-03-31T00:41:03;8.60;1.00
5276;DHT22;2661;50.786;12.728;2023-03-31T00:43:34;8.60;1.00
5276;DHT22;2661;50.786;12.728;2023-03-31T00:46:02;8.50;1.00
5276;DHT22;2661;50.786;12.728;2023-03-31T00:48:30;8.50;1.00
5276;DHT22;2661;50.786;12.728;2023-03-31T00:50:57;8.50;1.00
5276;DHT22;2661;50.786;12.728;2023-03-31T00:53:25;8.60;1.00
5276;DHT22;2661;50.786;12.728;2023-03-31T00:55:54;8.60;1.00
5276;DHT22;2661;50.786;12.728;2023-03-31T00:58:22;8.50;1.00
5276;DHT22;2661;50.786;12.728;2023-03-31T01:00:54;8.60;1.00
5276;DHT22;2661;50.786;12.728;2023-03-31T01:03:23;8.70;1.00
5276;DHT22;2661;50.786;12.728;2023-03-31T01:05:51;8.80;1.00
5276;DHT22;2661;50.786;12.728;2023-03-31T01:08:20;8.70;1.00
5276;DHT22;2661;50.786;12.728;2023-03-31T01:10:50;8.70;1.00
5276;DHT22;2661;50.786;12.728;2023-03-31T01:13:17;8.70;1.00
5276;DHT22;2661;50.786;12.728;2023-03-31T01:15:44;8.60;1.00
5276;DHT22;2661;50.786;12.728;2023-03-31T01:18:11;8.60;1.00
5276;DHT22;2661;50.786;12.728;2023-03-31T01:21:26;8.60;1.00
5276;DHT22;2661;50.786;12.728;2023-03-31T01:36:43;8.50;1.00
5276;DHT22;2661;50.786;12.728;2023-03-31T01:47:35;8.30;1.00
5276;DHT22;2661;50.786;12.728;2023-03-31T01:50:18;8.30;1.00
5276;DHT22;2661;50.786;12.728;2023-03-31T01:52:48;8.30;1.00
5276;DHT22;2661;50.786;12.728;2023-03-31T01:55:19;8.30;1.00
5276;DHT22;2661;50.786;12.728;2023-03-31T01:57:51;8.30;1.00
5276;DHT22;2661;50.786;12.728;2023-03-31T02:00:19;8.20;1.00
5276;DHT22;2661;50.786;12.728;2023-03-31T02:02:49;8.20;1.00
5276;DHT22;2661;50.786;12.728;2023-03-31T02:05:21;8.20;1.00
5276;DHT22;2661;50.786;12.728;2023-03-31T02:07:50;8.20;1.00
5276;DHT22;2661;50.786;12.728;2023-03-31T02:10:18;8.20;1.00
5276;DHT22;2661;50.786;12.728;2023-03-31T02:12:45;8.20;1.00
5276;DHT22;2661;50.786;12.728;2023-03-31T02:15:14;8.30;1.00
5276;DHT22;2661;50.786;12.728;2023-03-31T02:17:43;8.30;1.00
5276;DHT22;2661;50.786;12.728;2023-03-31T02:20:13;8.30;1.00
5276;DHT22;2661;50.786;12.728;2023-03-31T02:22:42;8.20;1.00
5276;DHT22;2661;50.786;12.728;2023-03-31T02:25:09;8.30;1.00
5276;DHT22;2661;50.786;12.728;2023-03-31T02:27:41;8.30;1.00
5276;DHT22;2661;50.786;12.728;2023-03-31T02:30:09;8.40;99.90
5276;DHT22;2661;50.786;12.728;2023-03-31T02:35:04;8.60;1.00
5276;DHT22;2661;50.786;12.728;2023-03-31T02:37:31;8.70;1.00
5276;DHT22;2661;50.786;12.728;2023-03-31T02:39:59;8.80;1.00
5276;DHT22;2661;50.786;12.728;2023-03-31T02:42:26;8.80;99.90
5276;DHT22;2661;50.786;12.728;2023-03-31T02:44:53;8.80;99.90
5276;DHT22;2661;50.786;12.728;2023-03-31T02:47:20;8.80;99.90
5276;DHT22;2661;50.786;12.728;2023-03-31T02:49:48;8.90;1.00
5276;DHT22;2661;50.786;12.728;2023-03-31T03:00:39;8.80;99.90
5276;DHT22;2661;50.786;12.728;2023-03-31T03:03:16;8.90;1.00
5276;DHT22;2661;50.786;12.728;2023-03-31T03:05:50;8.90;1.00
5276;DHT22;2661;50.786;12.728;2023-03-31T03:08:40;8.90;1.00
5276;DHT22;2661;50.786;12.728;2023-03-31T03:11:24;8.90;1.00
5276;DHT22;2661;50.786;12.728;2023-03-31T03:13:53;8.90;1.00
5276;DHT22;2661;50.786;12.728;2023-03-31T03:16:24;8.90;99.90
5276;DHT22;2661;50.786;12.728;2023-03-31T03:19:03;8.90;99.90
5276;DHT22;2661;50.786;12.728;2023-03-31T03:21:30;8.80;1.00
5276;DHT22;2661;50.786;12.728;2023-03-31T03:23:57;8.80;1.00
5276;DHT22;2661;50.786;12.728;2023-03-31T03:26:25;8.90;99.90
5276;DHT22;2661;50.786;12.728;2023-03-31T03:28:54;8.80;1.00
5276;DHT22;2661;50.786;12.728;2023-03-31T03:31:21;8.90;1.00
5276;DHT22;2661;50.786;12.728;2023-03-31T03:33:49;8.90;1.00
5276;DHT22;2661;50.786;12.728;2023-03-31T03:36:16;8.80;1.00
5276;DHT22;2661;50.786;12.728;2023-03-31T03:38:43;8.70;99.90
5276;DHT22;2661;50.786;12.728;2023-03-31T03:41:10;8.70;1.00
5276;DHT22;2661;50.786;12.728;2023-03-31T03:43:36;8.70;1.00
5276;DHT22;2661;50.786;12.728;2023-03-31T03:46:03;8.70;1.00
5276;DHT22;2661;50.786;12.728;2023-03-31T03:48:30;8.70;5.30
5276;DHT22;2661;50.786;12.728;2023-03-31T03:51:00;8.70;94.90
5276;DHT22;2661;50.786;12.728;2023-03-31T03:53:27;8.70;1.00
5276;DHT22;2661;50.786;12.728;2023-03-31T03:55:54;8.70;1.00
5276;DHT22;2661;50.786;12.728;2023-03-31T03:58:20;8.70;99.90
5276;DHT22;2661;50.786;12.728;2023-03-31T04:00:47;8.70;99.90
5276;DHT22;2661;50.786;12.728;2023-03-31T04:03:14;8.70;1.00
5276;DHT22;2661;50.786;12.728;2023-03-31T04:05:41;8.70;1.00
5276;DHT22;2661;50.786;12.728;2023-03-31T04:08:08;8.70;1.00
5276;DHT22;2661;50.786;12.728;2023-03-31T04:10:35;8.60;99.90
5276;DHT22;2661;50.786;12.728;2023-03-31T04:13:01;8.70;99.90
5276;DHT22;2661;50.786;12.728;2023-03-31T04:15:28;8.70;99.90
5276;DHT22;2661;50.786;12.728;2023-03-31T04:17:55;8.70;99.90
5276;DHT22;2661;50.786;12.728;2023-03-31T04:20:23;8.80;99.90
5276;DHT22;2661;50.786;12.728;2023-03-31T04:22:53;8.80;1.00
5276;DHT22;2661;50.786;12.728;2023-03-31T04:25:20;8.80;99.90
5276;DHT22;2661;50.786;12.728;2023-03-31T04:27:50;8.80;99.90
5276;DHT22;2661;50.786;12.728;2023-03-31T04:30:21;8.90;99.90
5276;DHT22;2661;50.786;12.728;2023-03-31T04:32:50;8.90;99.90
5276;DHT22;2661;50.786;12.728;2023-03-31T04:35:19;8.90;99.90
5276;DHT22;2661;50.786;12.728;2023-03-31T04:37:49;8.90;1.00
5276;DHT22;2661;50.786;12.728;2023-03-31T04:40:18;8.90;1.00
5276;DHT22;2661;50.786;12.728;2023-03-31T04:42:44;8.90;1.00
5276;DHT22;2661;50.786;12.728;2023-03-31T04:45:11;8.80;23.70
5276;DHT22;2661;50.786;12.728;2023-03-31T04:47:38;8.80;99.90
5276;DHT22;2661;50.786;12.728;2023-03-31T04:50:05;8.70;99.90
5276;DHT22;2661;50.786;12.728;2023-03-31T04:52:31;8.70;99.90
5276;DHT22;2661;50.786;12.728;2023-03-31T04:54:58;8.70;1.00
5276;DHT22;2661;50.786;12.728;2023-03-31T04:57:24;8.60;1.00
5276;DHT22;2661;50.786;12.728;2023-03-31T04:59:51;8.70;27.40
5276;DHT22;2661;50.786;12.728;2023-03-31T05:02:18;8.60;1.00
5276;DHT22;2661;50.786;12.728;2023-03-31T05:04:51;8.70;1.00
5276;DHT22;2661;50.786;12.728;2023-03-31T05:07:18;8.60;1.00
5276;DHT22;2661;50.786;12.728;2023-03-31T05:09:44;8.70;15.30
5276;DHT22;2661;50.786;12.728;2023-03-31T05:12:11;8.70;1.00
5276;DHT22;2661;50.786;12.728;2023-03-31T05:14:37;8.70;1.00
5276;DHT22;2661;50.786;12.728;2023-03-31T05:17:04;8.70;28.20
5276;DHT22;2661;50.786;12.728;2023-03-31T05:19:30;8.70;90.80
5276;DHT22;2661;50.786;12.728;2023-03-31T05:21:57;8.70;8.20
5276;DHT22;2661;50.786;12.728;2023-03-31T05:24:23;8.80;1.00
5276;DHT22;2661;50.786;12.728;2023-03-31T05:26:50;8.80;99.90
5276;DHT22;2661;50.786;12.728;2023-03-31T05:29:20;8.90;1.00
5276;DHT22;2661;50.786;12.728;2023-03-31T05:31:47;9.00;99.90
5276;DHT22;2661;50.786;12.728;2023-03-31T05:34:14;9.10;1.00
5276;DHT22;2661;50.786;12.728;2023-03-31T05:36:40;9.10;1.00
5276;DHT22;2661;50.786;12.728;2023-03-31T05:39:08;9.20;99.90
5276;DHT22;2661;50.786;12.728;2023-03-31T05:41:35;9.30;1.00
5276;DHT22;2661;50.786;12.728;2023-03-31T05:44:02;9.30;1.00
5276;DHT22;2661;50.786;12.728;2023-03-31T05:46:28;9.30;1.00
5276;DHT22;2661;50.786;12.728;2023-03-31T05:48:55;9.40;1.00
5276;DHT22;2661;50.786;12.728;2023-03-31T05:51:22;9.50;56.50
5276;DHT22;2661;50.786;12.728;2023-03-31T05:53:49;9.50;1.00
5276;DHT22;2661;50.786;12.728;2023-03-31T05:56:15;9.60;1.00
5276;DHT22;2661;50.786;12.728;2023-03-31T05:58:42;9.70;1.00
5276;DHT22;2661;50.786;12.728;2023-03-31T06:01:10;9.70;1.00
5276;DHT22;2661;50.786;12.728;2023-03-31T06:03:40;9.70;1.00
5276;DHT22;2661;50.786;12.728;2023-03-31T06:06:07;9.80;1.00
5276;DHT22;2661;50.786;12.728;2023-03-31T06:08:34;9.70;1.00
5276;DHT22;2661;50.786;12.728;2023-03-31T06:11:05;9.80;1.00
5276;DHT22;2661;50.786;12.728;2023-03-31T06:13:35;9.80;1.00
5276;DHT22;2661;50.786;12.728;2023-03-31T06:16:02;9.80;1.00
5276;DHT22;2661;50.786;12.728;2023-03-31T06:18:30;9.80;1.00
5276;DHT22;2661;50.786;12.728;2023-03-31T06:20:57;9.90;99.90
5276;DHT22;2661;50.786;12.728;2023-03-31T06:23:24;9.90;99.90
5276;DHT22;2661;50.786;12.728;2023-03-31T06:25:50;9.90;1.00
5276;DHT22;2661;50.786;12.728;2023-03-31T06:28:18;9.90;1.00
5276;DHT22;2661;50.786;12.728;2023-03-31T06:30:45;10.00;99.90
5276;DHT22;2661;50.786;12.728;2023-03-31T06:33:11;10.00;99.90
5276;DHT22;2661;50.786;12.728;2023-03-31T06:35:39;10.10;99.90
5276;DHT22;2661;50.786;12.728;2023-03-31T06:38:06;10.10;99.90
5276;DHT22;2661;50.786;12.728;2023-03-31T06:40:33;10.20;99.90
5276;DHT22;2661;50.786;12.728;2023-03-31T06:42:59;10.20;99.90
5276;DHT22;2661;50.786;12.728;2023-03-31T06:45:26;10.20;99.90
5276;DHT22;2661;50.786;12.728;2023-03-31T06:47:52;10.30;99.90
5276;DHT22;2661;50.786;12.728;2023-03-31T06:50:19;10.40;99.90
5276;DHT22;2661;50.786;12.728;2023-03-31T06:52:45;10.50;99.90
5276;DHT22;2661;50.786;12.728;2023-03-31T06:55:12;10.50;99.90
5276;DHT22;2661;50.786;12.728;2023-03-31T06:57:40;10.50;99.90
5276;DHT22;2661;50.786;12.728;2023-03-31T07:00:07;10.60;99.90
5276;DHT22;2661;50.786;12.728;2023-03-31T07:02:34;10.60;99.90
5276;DHT22;2661;50.786;12.728;2023-03-31T07:05:02;10.70;91.20
5276;DHT22;2661;50.786;12.728;2023-03-31T07:07:31;10.80;43.20
5276;DHT22;2661;50.786;12.728;2023-03-31T07:09:58;10.90;47.90
5276;DHT22;2661;50.786;12.728;2023-03-31T07:12:24;10.90;43.70
5276;DHT22;2661;50.786;12.728;2023-03-31T07:14:51;10.90;24.20
5276;DHT22;2661;50.786;12.728;2023-03-31T07:17:17;10.90;20.40
5276;DHT22;2661;50.786;12.728;2023-03-31T07:19:44;11.00;15.60
5276;DHT22;2661;50.786;12.728;2023-03-31T07:22:13;11.10;12.80
5276;DHT22;2661;50.786;12.728;2023-03-31T07:24:40;11.20;17.90
5276;DHT22;2661;50.786;12.728;2023-03-31T07:27:07;11.20;18.50
5276;DHT22;2661;50.786;12.728;2023-03-31T07:29:33;11.30;10.70
5276;DHT22;2661;50.786;12.728;2023-03-31T07:32:00;11.30;8.30
5276;DHT22;2661;50.786;12.728;2023-03-31T07:34:27;11.30;7.30
5276;DHT22;2661;50.786;12.728;2023-03-31T07:36:54;11.30;5.00
5276;DHT22;2661;50.786;12.728;2023-03-31T07:39:21;11.40;2.80
5276;DHT22;2661;50.786;12.728;2023-03-31T07:41:47;11.30;1.00
5276;DHT22;2661;50.786;12.728;2023-03-31T07:44:14;11.30;1.00
5276;DHT22;2661;50.786;12.728;2023-03-31T07:46:42;11.20;1.10
5276;DHT22;2661;50.786;12.728;2023-03-31T07:49:09;11.10;1.00
5276;DHT22;2661;50.786;12.728;2023-03-31T07:51:40;10.90;21.00
5276;DHT22;2661;50.786;12.728;2023-03-31T07:54:07;10.90;25.00
5276;DHT22;2661;50.786;12.728;2023-03-31T07:56:33;10.80;28.60
5276;DHT22;2661;50.786;12.728;2023-03-31T07:59:00;10.80;50.40
5276;DHT22;2661;50.786;12.728;2023-03-31T08:01:27;10.70;45.80
5276;DHT22;2661;50.786;12.728;2023-03-31T08:03:54;10.70;83.30
5276;DHT22;2661;50.786;12.728;2023-03-31T08:06:22;10.80;99.40
5276;DHT22;2661;50.786;12.728;2023-03-31T08:08:49;10.70;99.90
5276;DHT22;2661;50.786;12.728;2023-03-31T08:11:16;10.60;99.90
5276;DHT22;2661;50.786;12.728;2023-03-31T08:13:43;10.70;99.90
5276;DHT22;2661;50.786;12.728;2023-03-31T08:16:09;10.70;99.10
5276;DHT22;2661;50.786;12.728;2023-03-31T08:18:36;10.70;65.10
5276;DHT22;2661;50.786;12.728;2023-03-31T08:21:03;10.60;63.40
5276;DHT22;2661;50.786;12.728;2023-03-31T08:23:30;10.70;17.00
5276;DHT22;2661;50.786;12.728;2023-03-31T08:28:53;10.60;16.20
5276;DHT22;2661;50.786;12.728;2023-03-31T08:31:19;10.60;17.80
5276;DHT22;2661;50.786;12.728;2023-03-31T08:33:46;10.50;23.90
5276;DHT22;2661;50.786;12.728;2023-03-31T08:36:13;10.50;19.40
5276;DHT22;2661;50.786;12.728;2023-03-31T08:38:40;10.60;11.00
5276;DHT22;2661;50.786;12.728;2023-03-31T08:43:50;10.50;11.40
5276;DHT22;2661;50.786;12.728;2023-03-31T08:46:18;10.50;11.70
5276;DHT22;2661;50.786;12.728;2023-03-31T08:48:50;10.50;30.00
5276;DHT22;2661;50.786;12.728;2023-03-31T08:54:12;10.50;53.00
5276;DHT22;2661;50.786;12.728;2023-03-31T08:56:41;10.70;39.30
5276;DHT22;2661;50.786;12.728;2023-03-31T08:59:17;10.70;41.30
5276;DHT22;2661;50.786;12.728;2023-03-31T09:01:47;10.80;21.40
5276;DHT22;2661;50.786;12.728;2023-03-31T09:04:45;10.90;23.30
5276;DHT22;2661;50.786;12.728;2023-03-31T09:09:46;11.00;23.40
5276;DHT22;2661;50.786;12.728;2023-03-31T09:12:19;11.00;8.50
5276;DHT22;2661;50.786;12.728;2023-03-31T09:14:51;11.00;3.60
5276;DHT22;2661;50.786;12.728;2023-03-31T09:17:21;10.90;3.70
5276;DHT22;2661;50.786;12.728;2023-03-31T09:20:10;10.90;1.00
5276;DHT22;2661;50.786;12.728;2023-03-31T09:22:40;10.90;1.20
5276;DHT22;2661;50.786;12.728;2023-03-31T09:25:12;10.80;1.00
5276;DHT22;2661;50.786;12.728;2023-03-31T09:27:40;10.80;27.10
5276;DHT22;2661;50.786;12.728;2023-03-31T09:30:15;10.80;38.80
5276;DHT22;2661;50.786;12.728;2023-03-31T09:32:46;10.80;61.40
5276;DHT22;2661;50.786;12.728;2023-03-31T09:35:20;10.80;62.80
5276;DHT22;2661;50.786;12.728;2023-03-31T09:37:48;10.90;81.00
5276;DHT22;2661;50.786;12.728;2023-03-31T09:40:19;10.90;86.90
5276;DHT22;2661;50.786;12.728;2023-03-31T09:42:46;10.90;94.30
5276;DHT22;2661;50.786;12.728;2023-03-31T09:45:14;10.80;99.90
5276;DHT22;2661;50.786;12.728;2023-03-31T09:47:41;10.70;98.70
5276;DHT22;2661;50.786;12.728;2023-03-31T09:50:09;10.80;76.40
5276;DHT22;2661;50.786;12.728;2023-03-31T09:52:40;10.80;86.10
5276;DHT22;2661;50.786;12.728;2023-03-31T09:55:16;10.70;72.80
5276;DHT22;2661;50.786;12.728;2023-03-31T09:58:04;10.70;61.70
5276;DHT22;2661;50.786;12.728;2023-03-31T10:00:32;10.60;55.60
5276;DHT22;2661;50.786;12.728;2023-03-31T10:03:03;10.70;43.50
5276;DHT22;2661;50.786;12.728;2023-03-31T10:05:34;10.60;53.40
5276;DHT22;2661;50.786;12.728;2023-03-31T10:08:11;10.60;54.20
5276;DHT22;2661;50.786;12.728;2023-03-31T10:10:43;10.60;45.70
5276;DHT22;2661;50.786;12.728;2023-03-31T10:13:09;10.60;53.10
5276;DHT22;2661;50.786;12.728;2023-03-31T10:15:39;10.50;78.30
5276;DHT22;2661;50.786;12.728;2023-03-31T10:18:12;10.40;80.30
5276;DHT22;2661;50.786;12.728;2023-03-31T10:20:42;10.40;99.90
5276;DHT22;2661;50.786;12.728;2023-03-31T10:23:16;10.40;99.90
5276;DHT22;2661;50.786;12.728;2023-03-31T10:25:44;10.40;99.90
5276;DHT22;2661;50.786;12.728;2023-03-31T10:28:12;10.50;98.90
5276;DHT22;2661;50.786;12.728;2023-03-31T10:30:41;10.50;60.00
5276;DHT22;2661;50.786;12.728;2023-03-31T10:33:13;10.50;89.40
5276;DHT22;2661;50.786;12.728;2023-03-31T10:35:49;10.40;99.90
5276;DHT22;2661;50.786;12.728;2023-03-31T10:38:26;10.50;99.90
5276;DHT22;2661;50.786;12.728;2023-03-31T10:40:55;10.40;99.90
5276;DHT22;2661;50.786;12.728;2023-03-31T10:43:29;10.40;99.90
5276;DHT22;2661;50.786;12.728;2023-03-31T10:46:00;10.50;99.90
5276;DHT22;2661;50.786;12.728;2023-03-31T10:48:31;10.40;99.90
5276;DHT22;2661;50.786;12.728;2023-03-31T10:50:58;10.40;99.90
5276;DHT22;2661;50.786;12.728;2023-03-31T10:53:25;10.30;99.90
5276;DHT22;2661;50.786;12.728;2023-03-31T10:55:55;10.30;99.90
5276;DHT22;2661;50.786;12.728;2023-03-31T10:58:33;10.30;99.90
5276;DHT22;2661;50.786;12.728;2023-03-31T11:04:26;10.10;99.90
5276;DHT22;2661;50.786;12.728;2023-03-31T11:06:56;10.10;1.00
5276;DHT22;2661;50.786;12.728;2023-03-31T11:14:47;9.90;99.90
5276;DHT22;2661;50.786;12.728;2023-03-31T11:19:48;9.70;1.00
5276;DHT22;2661;50.786;12.728;2023-03-31T11:22:28;9.70;1.00
5276;DHT22;2661;50.786;12.728;2023-03-31T11:25:03;9.70;99.90
5276;DHT22;2661;50.786;12.728;2023-03-31T11:30:09;9.70;1.00
5276;DHT22;2661;50.786;12.728;2023-03-31T11:32:53;9.70;1.00
5276;DHT22;2661;50.786;12.728;2023-03-31T11:37:53;9.70;1.00
5276;DHT22;2661;50.786;12.728;2023-03-31T11:40:40;9.80;1.00
5276;DHT22;2661;50.786;12.728;2023-03-31T11:45:37;9.90;1.00
5276;DHT22;2661;50.786;12.728;2023-03-31T11:48:06;9.90;1.00
5276;DHT22;2661;50.786;12.728;2023-03-31T11:50:36;9.90;99.90
5276;DHT22;2661;50.786;12.728;2023-03-31T11:53:06;10.00;69.10
5276;DHT22;2661;50.786;12.728;2023-03-31T11:55:38;10.10;99.90
5276;DHT22;2661;50.786;12.728;2023-03-31T11:58:12;10.20;1.00
5276;DHT22;2661;50.786;12.728;2023-03-31T12:00:45;10.30;99.90
5276;DHT22;2661;50.786;12.728;2023-03-31T12:03:15;10.30;99.90
5276;DHT22;2661;50.786;12.728;2023-03-31T12:05:46;10.40;32.60
5276;DHT22;2661;50.786;12.728;2023-03-31T12:08:15;10.40;1.00
5276;DHT22;2661;50.786;12.728;2023-03-31T12:10:44;10.40;1.00
5276;DHT22;2661;50.786;12.728;2023-03-31T12:13:33;10.40;1.00
5276;DHT22;2661;50.786;12.728;2023-03-31T12:18:30;10.40;1.00
5276;DHT22;2661;50.786;12.728;2023-03-31T12:20:59;10.50;1.00
5276;DHT22;2661;50.786;12.728;2023-03-31T12:23:27;10.70;99.90
5276;DHT22;2661;50.786;12.728;2023-03-31T12:26:02;10.80;99.90
5276;DHT22;2661;50.786;12.728;2023-03-31T12:28:34;10.90;99.90
5276;DHT22;2661;50.786;12.728;2023-03-31T12:31:03;11.00;99.90
5276;DHT22;2661;50.786;12.728;2023-03-31T12:33:41;11.10;99.90
5276;DHT22;2661;50.786;12.728;2023-03-31T12:36:19;11.00;99.90
5276;DHT22;2661;50.786;12.728;2023-03-31T12:38:57;11.00;99.90
5276;DHT22;2661;50.786;12.728;2023-03-31T12:44:14;11.20;91.90
5276;DHT22;2661;50.786;12.728;2023-03-31T12:52:04;11.60;33.60
5276;DHT22;2661;50.786;12.728;2023-03-31T12:54:46;11.60;34.70
5276;DHT22;2661;50.786;12.728;2023-03-31T12:57:24;11.70;39.30
5276;DHT22;2661;50.786;12.728;2023-03-31T13:02:39;11.80;13.80
5276;DHT22;2661;50.786;12.728;2023-03-31T13:07:51;11.70;1.00
5276;DHT22;2661;50.786;12.728;2023-03-31T13:10:22;11.80;7.30
5276;DHT22;2661;50.786;12.728;2023-03-31T13:15:22;12.10;1.00
5276;DHT22;2661;50.786;12.728;2023-03-31T13:17:54;12.20;1.70
5276;DHT22;2661;50.786;12.728;2023-03-31T13:22:48;12.40;1.00
5276;DHT22;2661;50.786;12.728;2023-03-31T13:28:12;12.50;1.00
5276;DHT22;2661;50.786;12.728;2023-03-31T13:33:13;12.70;1.00
5276;DHT22;2661;50.786;12.728;2023-03-31T13:35:47;12.90;1.00
5276;DHT22;2661;50.786;12.728;2023-03-31T13:38:22;12.90;1.00
5276;DHT22;2661;50.786;12.728;2023-03-31T13:41:02;13.00;1.00
5276;DHT22;2661;50.786;12.728;2023-03-31T13:46:31;13.40;1.00
5276;DHT22;2661;50.786;12.728;2023-03-31T13:54:27;13.40;1.00
5276;DHT22;2661;50.786;12.728;2023-03-31T14:07:37;13.20;1.00
5276;DHT22;2661;50.786;12.728;2023-03-31T14:10:20;13.10;1.00
5276;DHT22;2661;50.786;12.728;2023-03-31T14:12:47;13.00;1.00
5276;DHT22;2661;50.786;12.728;2023-03-31T14:15:18;12.90;1.00
5276;DHT22;2661;50.786;12.728;2023-03-31T14:17:45;12.80;1.00
5276;DHT22;2661;50.786;12.728;2023-03-31T14:25:15;12.70;1.00
5276;DHT22;2661;50.786;12.728;2023-03-31T14:28:03;12.60;1.00
5276;DHT22;2661;50.786;12.728;2023-03-31T14:30:39;12.60;1.00
5276;DHT22;2661;50.786;12.728;2023-03-31T14:33:12;12.60;1.00
5276;DHT22;2661;50.786;12.728;2023-03-31T14:35:45;12.60;1.00
5276;DHT22;2661;50.786;12.728;2023-03-31T14:38:16;12.60;1.00
5276;DHT22;2661;50.786;12.728;2023-03-31T14:40:45;12.70;1.00
5276;DHT22;2661;50.786;12.728;2023-03-31T14:43:20;12.80;1.00
5276;DHT22;2661;50.786;12.728;2023-03-31T14:45:51;12.80;1.00
5276;DHT22;2661;50.786;12.728;2023-03-31T14:48:22;12.80;1.00
5276;DHT22;2661;50.786;12.728;2023-03-31T14:50:48;12.90;1.00
5276;DHT22;2661;50.786;12.728;2023-03-31T14:53:18;12.90;1.00
5276;DHT22;2661;50.786;12.728;2023-03-31T14:55:48;13.00;2.00
5276;DHT22;2661;50.786;12.728;2023-03-31T14:58:25;13.00;1.00
5276;DHT22;2661;50.786;12.728;2023-03-31T15:00:53;12.90;1.00
5276;DHT22;2661;50.786;12.728;2023-03-31T15:03:21;12.70;1.00
5276;DHT22;2661;50.786;12.728;2023-03-31T15:05:51;12.70;1.00
5276;DHT22;2661;50.786;12.728;2023-03-31T15:08:22;12.50;28.30
5276;DHT22;2661;50.786;12.728;2023-03-31T15:10:50;12.40;1.00
5276;DHT22;2661;50.786;12.728;2023-03-31T15:15:50;12.00;1.00
5276;DHT22;2661;50.786;12.728;2023-03-31T15:18:17;11.90;1.00
5276;DHT22;2661;50.786;12.728;2023-03-31T15:20:44;11.80;1.00
5276;DHT22;2661;50.786;12.728;2023-03-31T15:23:18;11.80;1.00
5276;DHT22;2661;50.786;12.728;2023-03-31T15:25:51;11.80;1.00
5276;DHT22;2661;50.786;12.728;2023-03-31T15:28:19;11.80;1.00
5276;DHT22;2661;50.786;12.728;2023-03-31T15:30:47;11.80;1.00
5276;DHT22;2661;50.786;12.728;2023-03-31T15:33:27;11.70;1.00
5276;DHT22;2661;50.786;12.728;2023-03-31T15:35:56;11.70;1.00
5276;DHT22;2661;50.786;12.728;2023-03-31T15:38:24;11.80;1.00
5276;DHT22;2661;50.786;12.728;2023-03-31T15:40:53;11.80;1.00
5276;DHT22;2661;50.786;12.728;2023-03-31T15:43:26;11.80;1.00
5276;DHT22;2661;50.786;12.728;2023-03-31T15:45:57;11.70;1.00
5276;DHT22;2661;50.786;12.728;2023-03-31T15:48:27;11.70;1.00
5276;DHT22;2661;50.786;12.728;2023-03-31T15:51:01;11.60;7.80
5276;DHT22;2661;50.786;12.728;2023-03-31T15:53:29;11.50;1.00
5276;DHT22;2661;50.786;12.728;2023-03-31T15:55:57;11.50;1.00
5276;DHT22;2661;50.786;12.728;2023-03-31T15:58:44;11.40;1.00
5276;DHT22;2661;50.786;12.728;2023-03-31T16:01:11;11.40;1.00
5276;DHT22;2661;50.786;12.728;2023-03-31T16:03:41;11.50;1.00
5276;DHT22;2661;50.786;12.728;2023-03-31T16:06:08;11.40;1.00
5276;DHT22;2661;50.786;12.728;2023-03-31T16:08:44;11.40;1.00
5276;DHT22;2661;50.786;12.728;2023-03-31T16:11:13;11.50;1.00
5276;DHT22;2661;50.786;12.728;2023-03-31T16:13:42;11.50;1.00
5276;DHT22;2661;50.786;12.728;2023-03-31T16:16:10;11.60;1.00
5276;DHT22;2661;50.786;12.728;2023-03-31T16:18:39;11.70;1.00
5276;DHT22;2661;50.786;12.728;2023-03-31T16:21:08;11.80;1.00
5276;DHT22;2661;50.786;12.728;2023-03-31T16:23:38;11.80;1.00
5276;DHT22;2661;50.786;12.728;2023-03-31T16:26:06;11.70;1.00
5276;DHT22;2661;50.786;12.728;2023-03-31T16:28:34;11.60;1.00
5276;DHT22;2661;50.786;12.728;2023-03-31T16:31:01;11.60;1.00
5276;DHT22;2661;50.786;12.728;2023-03-31T16:33:29;11.50;1.00
5276;DHT22;2661;50.786;12.728;2023-03-31T16:35:57;11.50;1.00
5276;DHT22;2661;50.786;12.728;2023-03-31T16:38:25;11.40;1.00
5276;DHT22;2661;50.786;12.728;2023-03-31T16:40:52;11.40;1.00
5276;DHT22;2661;50.786;12.728;2023-03-31T16:43:21;11.30;1.00
5276;DHT22;2661;50.786;12.728;2023-03-31T16:45:49;11.20;1.00
5276;DHT22;2661;50.786;12.728;2023-03-31T16:48:17;11.00;1.00
5276;DHT22;2661;50.786;12.728;2023-03-31T16:50:45;11.10;1.00
5276;DHT22;2661;50.786;12.728;2023-03-31T16:53:12;11.20;1.00
5276;DHT22;2661;50.786;12.728;2023-03-31T16:55:40;11.30;1.00
5276;DHT22;2661;50.786;12.728;2023-03-31T16:58:06;11.30;1.00
5276;DHT22;2661;50.786;12.728;2023-03-31T17:00:34;11.30;1.00
5276;DHT22;2661;50.786;12.728;2023-03-31T17:03:02;11.20;1.00
5276;DHT22;2661;50.786;12.728;2023-03-31T17:05:30;11.00;1.00
5276;DHT22;2661;50.786;12.728;2023-03-31T17:07:59;11.00;1.00
5276;DHT22;2661;50.786;12.728;2023-03-31T17:10:26;11.00;1.00
5276;DHT22;2661;50.786;12.728;2023-03-31T17:12:53;10.90;1.00
5276;DHT22;2661;50.786;12.728;2023-03-31T17:15:20;10.80;1.00
5276;DHT22;2661;50.786;12.728;2023-03-31T17:17:46;10.70;1.00
5276;DHT22;2661;50.786;12.728;2023-03-31T17:20:13;10.60;1.00
5276;DHT22;2661;50.786;12.728;2023-03-31T17:22:40;10.60;1.00
5276;DHT22;2661;50.786;12.728;2023-03-31T17:25:07;10.60;1.00
5276;DHT22;2661;50.786;12.728;2023-03-31T17:27:33;10.60;1.00
5276;DHT22;2661;50.786;12.728;2023-03-31T17:30:00;10.50;1.00
5276;DHT22;2661;50.786;12.728;2023-03-31T17:32:28;10.50;1.00
5276;DHT22;2661;50.786;12.728;2023-03-31T17:34:55;10.50;1.00
5276;DHT22;2661;50.786;12.728;2023-03-31T17:37:22;10.40;1.00
5276;DHT22;2661;50.786;12.728;2023-03-31T17:39:48;10.40;1.00
5276;DHT22;2661;50.786;12.728;2023-03-31T17:42:16;10.40;5.30
5276;DHT22;2661;50.786;12.728;2023-03-31T17:44:44;10.40;1.00
5276;DHT22;2661;50.786;12.728;2023-03-31T17:47:13;10.40;1.00
5276;DHT22;2661;50.786;12.728;2023-03-31T17:49:41;10.30;1.00
5276;DHT22;2661;50.786;12.728;2023-03-31T17:52:07;10.20;1.00
5276;DHT22;2661;50.786;12.728;2023-03-31T17:54:34;10.30;1.00
5276;DHT22;2661;50.786;12.728;2023-03-31T17:57:01;10.20;1.00
5276;DHT22;2661;50.786;12.728;2023-03-31T17:59:30;10.10;1.00
5276;DHT22;2661;50.786;12.728;2023-03-31T18:01:57;10.10;1.00
5276;DHT22;2661;50.786;12.728;2023-03-31T18:04:23;10.00;1.00
5276;DHT22;2661;50.786;12.728;2023-03-31T18:06:51;10.00;1.00
5276;DHT22;2661;50.786;12.728;2023-03-31T18:09:18;10.00;1.00
5276;DHT22;2661;50.786;12.728;2023-03-31T18:11:48;10.00;1.00